createdAt,value
2023-03-26T00:04:58.452Z,8.18
2023-03-26T00:10:04.573Z,8.37
2023-03-26T00:15:11.030Z,8.48
2023-03-26T00:20:16.373Z,8.10
2023-03-26T00:25:24.317Z,7.98
2023-03-26T00:30:29.440Z,7.98
2023-03-26T00:35:38.020Z,7.68
2023-03-26T00:40:48.570Z,7.55
2023-03-26T00:45:55.964Z,7.47
2023-03-26T00:51:02.028Z,7.33
2023-03-26T00:56:08.367Z,7.16
2023-03-26T01:01:16.888Z,7.04
2023-03-26T01:06:42.591Z,6.79
2023-03-26T01:11:50.245Z,6.58
2023-03-26T01:16:58.345Z,6.44
2023-03-26T01:22:03.367Z,6.28
2023-03-26T01:27:41.577Z,6.23
2023-03-26T01:33:14.934Z,6.06
2023-03-26T01:38:47.264Z,6.01
2023-03-26T01:44:00.909Z,5.94
2023-03-26T01:49:14.954Z,5.68
2023-03-26T01:54:24.136Z,5.62
2023-03-26T01:59:58.008Z,5.64
2023-03-26T02:05:23.611Z,5.53
2023-03-26T02:10:38.834Z,5.47
2023-03-26T02:15:59.070Z,5.38
2023-03-26T02:21:23.417Z,5.47
2023-03-26T02:26:31.474Z,5.36
2023-03-26T02:31:48.870Z,5.34
2023-03-26T02:36:54.328Z,5.04
2023-03-26T02:42:02.045Z,5.46
2023-03-26T02:47:10.993Z,5.27
2023-03-26T02:52:21.221Z,5.32
2023-03-26T02:57:29.075Z,5.41
2023-03-26T03:02:54.654Z,5.34
2023-03-26T03:08:22.964Z,5.64
2023-03-26T03:13:44.187Z,6.05
2023-03-26T03:18:57.747Z,6.04
2023-03-26T03:24:20.562Z,6.47
2023-03-26T03:29:26.675Z,6.94
2023-03-26T03:34:32.862Z,6.95
2023-03-26T03:39:38.219Z,7.12
2023-03-26T03:44:44.015Z,7.27
2023-03-26T03:50:09.768Z,7.95
2023-03-26T03:55:20.470Z,8.68
2023-03-26T04:00:31.494Z,9.20
2023-03-26T04:06:07.620Z,10.06
2023-03-26T04:11:14.742Z,10.44
2023-03-26T04:16:58.454Z,10.74
2023-03-26T04:22:05.297Z,11.47
2023-03-26T04:27:21.383Z,12.03
2023-03-26T04:32:30.372Z,13.02
2023-03-26T04:37:40.543Z,13.82
2023-03-26T04:42:49.319Z,13.90
2023-03-26T04:48:09.242Z,14.42
2023-03-26T04:53:21.784Z,15.10
2023-03-26T04:58:33.667Z,15.59
2023-03-26T05:03:41.953Z,16.83
2023-03-26T05:08:53.324Z,18.06
2023-03-26T05:14:36.716Z,18.86
2023-03-26T05:19:47.224Z,19.42
2023-03-26T05:24:52.895Z,20.31
2023-03-26T05:30:05.316Z,21.03
2023-03-26T05:35:20.628Z,21.44
2023-03-26T05:40:26.699Z,22.03
2023-03-26T05:45:41.730Z,22.65
2023-03-26T05:50:59.269Z,22.75
2023-03-26T05:56:11.508Z,22.52
2023-03-26T06:01:38.005Z,22.24
2023-03-26T06:07:11.065Z,21.90
2023-03-26T06:12:18.145Z,20.98
2023-03-26T06:17:23.809Z,20.04
2023-03-26T06:22:48.609Z,19.41
2023-03-26T06:27:58.985Z,19.14
2023-03-26T06:33:24.678Z,19.21
2023-03-26T06:38:32.620Z,19.39
2023-03-26T06:43:43.399Z,19.23
2023-03-26T06:49:12.992Z,19.14
2023-03-26T06:54:46.593Z,18.92
2023-03-26T07:00:14.223Z,19.02
2023-03-26T07:05:39.618Z,19.12
2023-03-26T07:11:04.244Z,18.89
2023-03-26T07:16:30.172Z,19.13
2023-03-26T07:22:00.156Z,18.90
2023-03-26T07:27:54.092Z,19.18
2023-03-26T07:33:29.425Z,19.49
2023-03-26T07:39:14.409Z,19.91
2023-03-26T07:45:11.972Z,19.64
2023-03-26T07:50:24.779Z,19.88
2023-03-26T07:56:11.921Z,19.92
2023-03-26T08:02:06.847Z,20.01
2023-03-26T08:07:53.371Z,19.84
2023-03-26T08:13:25.075Z,20.18
2023-03-26T08:18:49.877Z,19.75
2023-03-26T08:24:12.721Z,19.78
2023-03-26T08:29:45.659Z,20.02
2023-03-26T08:34:53.262Z,19.99
2023-03-26T08:39:58.480Z,19.94
2023-03-26T08:45:31.874Z,19.89
2023-03-26T08:50:45.979Z,19.90
2023-03-26T08:55:55.466Z,20.05
2023-03-26T09:01:34.659Z,20.09
2023-03-26T09:06:44.976Z,20.08
2023-03-26T09:12:27.152Z,19.89
2023-03-26T09:18:06.765Z,19.96
2023-03-26T09:23:19.025Z,19.89
2023-03-26T09:29:01.510Z,19.97
2023-03-26T09:34:52.502Z,20.31
2023-03-26T09:40:23.099Z,20.51
2023-03-26T09:45:53.021Z,20.36
2023-03-26T09:51:50.860Z,20.37
2023-03-26T09:57:19.141Z,20.42
2023-03-26T10:02:54.823Z,20.46
2023-03-26T10:08:09.444Z,20.55
2023-03-26T10:13:36.913Z,20.63
2023-03-26T10:18:57.484Z,20.65
2023-03-26T10:24:25.117Z,20.78
2023-03-26T10:29:46.998Z,20.51
2023-03-26T10:35:11.173Z,20.59
2023-03-26T10:40:55.099Z,20.69
2023-03-26T10:46:26.933Z,20.72
2023-03-26T10:51:57.686Z,20.64
2023-03-26T10:57:21.419Z,20.57
2023-03-26T11:02:41.640Z,20.65
2023-03-26T11:08:03.351Z,20.69
2023-03-26T11:13:21.713Z,20.68
2023-03-26T11:18:50.917Z,20.67
2023-03-26T11:24:33.369Z,20.66
2023-03-26T11:29:45.427Z,20.77
2023-03-26T11:35:40.335Z,20.81
2023-03-26T11:40:53.571Z,20.77
2023-03-26T11:46:27.223Z,20.69
2023-03-26T11:51:39.596Z,20.58
2023-03-26T11:57:07.275Z,20.45
2023-03-26T12:02:25.698Z,20.62
2023-03-26T12:07:35.265Z,20.61
2023-03-26T12:12:44.088Z,20.49
2023-03-26T12:17:56.624Z,20.34
2023-03-26T12:23:04.752Z,20.23
2023-03-26T12:28:14.746Z,20.11
2023-03-26T12:33:34.774Z,20.05
2023-03-26T12:38:42.999Z,19.98
2023-03-26T12:44:56.639Z,20.06
2023-03-26T12:49:17.924Z,20.13
2023-03-26T12:54:39.719Z,20.12
2023-03-26T13:00:11.878Z,20.06
2023-03-26T13:05:56.269Z,19.86
2023-03-26T13:11:40.796Z,19.80
2023-03-26T13:17:12.066Z,19.76
2023-03-26T13:22:42.155Z,19.57
2023-03-26T13:28:28.348Z,19.41
2023-03-26T13:34:00.910Z,19.28
2023-03-26T13:39:40.974Z,19.15
2023-03-26T13:45:17.533Z,18.99
2023-03-26T13:50:37.085Z,18.83
2023-03-26T13:55:51.109Z,18.74
2023-03-26T14:01:20.067Z,18.54
2023-03-26T14:06:35.950Z,18.42
2023-03-26T14:12:21.114Z,18.30
2023-03-26T14:18:02.564Z,18.13
2023-03-26T14:23:32.234Z,18.00
2023-03-26T14:29:14.739Z,17.87
2023-03-26T14:34:51.586Z,17.74
2023-03-26T14:40:22.604Z,17.55
2023-03-26T14:45:38.190Z,17.29
2023-03-26T14:51:19.174Z,17.07
2023-03-26T14:56:54.190Z,16.85
2023-03-26T15:02:10.477Z,16.72
2023-03-26T15:07:56.526Z,16.47
2023-03-26T15:13:25.332Z,16.19
2023-03-26T15:19:26.280Z,16.01
2023-03-26T15:24:58.926Z,15.77
2023-03-26T15:30:28.902Z,15.62
2023-03-26T15:36:06.473Z,15.56
2023-03-26T15:41:28.437Z,15.44
2023-03-26T15:46:59.580Z,15.43
2023-03-26T15:52:26.440Z,15.10
2023-03-26T15:57:51.713Z,14.84
2023-03-26T16:03:11.197Z,14.64
2023-03-26T16:08:39.070Z,14.59
2023-03-26T16:13:57.908Z,14.43
2023-03-26T16:19:23.274Z,14.27
2023-03-26T16:24:41.706Z,14.23
2023-03-26T16:30:02.515Z,14.23
2023-03-26T16:35:40.800Z,14.02
2023-03-26T16:41:06.655Z,13.90
2023-03-26T16:46:56.648Z,13.69
2023-03-26T16:52:15.676Z,13.57
2023-03-26T16:57:48.432Z,13.42
2023-03-26T17:03:18.058Z,13.13
2023-03-26T17:08:37.365Z,12.80
2023-03-26T17:14:03.526Z,12.74
2023-03-26T17:19:48.316Z,12.63
2023-03-26T17:25:07.849Z,12.54
2023-03-26T17:31:00.867Z,12.33
2023-03-26T17:36:42.671Z,12.15
2023-03-26T17:42:00.892Z,12.25
2023-03-26T17:47:19.365Z,12.28
2023-03-26T17:52:34.919Z,12.22
2023-03-26T17:57:47.041Z,12.39
2023-03-26T18:03:01.976Z,12.43
2023-03-26T18:14:04.291Z,12.30
2023-03-26T18:19:22.932Z,12.30
2023-03-26T18:24:39.997Z,12.69
2023-03-26T18:30:16.714Z,12.76
2023-03-26T18:35:26.002Z,12.81
2023-03-26T18:40:44.963Z,12.89
2023-03-26T18:46:19.730Z,13.03
2023-03-26T18:51:30.663Z,13.30
2023-03-26T18:56:44.232Z,13.47
2023-03-26T19:01:51.400Z,13.45
2023-03-26T19:06:57.650Z,13.70
2023-03-26T19:12:33.464Z,13.62
2023-03-26T19:17:46.604Z,13.73
2023-03-26T19:22:55.837Z,13.97
2023-03-26T19:28:03.168Z,14.22
2023-03-26T19:33:21.722Z,14.27
2023-03-26T19:38:39.547Z,14.13
2023-03-26T19:43:55.823Z,13.92
2023-03-26T19:49:01.897Z,13.68
2023-03-26T19:54:17.920Z,13.46
2023-03-26T19:59:23.318Z,13.18
2023-03-26T20:04:36.169Z,12.96
2023-03-26T20:09:43.465Z,12.73
2023-03-26T20:14:49.871Z,12.54
2023-03-26T20:19:55.050Z,12.40
2023-03-26T20:25:00.573Z,12.20
2023-03-26T20:30:10.469Z,12.02
2023-03-26T20:35:36.270Z,11.97
2023-03-26T20:40:45.487Z,11.94
2023-03-26T20:45:52.558Z,11.89
2023-03-26T20:50:58.002Z,11.94
2023-03-26T20:56:05.452Z,11.96
2023-03-26T21:01:35.893Z,12.06
2023-03-26T21:06:42.580Z,12.14
2023-03-26T21:12:07.575Z,11.96
2023-03-26T21:17:25.156Z,12.05
2023-03-26T21:22:35.942Z,12.08
2023-03-26T21:28:29.132Z,11.92
2023-03-26T21:33:43.127Z,11.81
2023-03-26T21:38:48.764Z,11.90
2023-03-26T21:43:54.095Z,12.03
2023-03-26T21:48:59.503Z,11.88
2023-03-26T21:54:06.884Z,11.78
2023-03-26T21:59:34.165Z,11.70
2023-03-26T22:04:59.313Z,11.86
2023-03-26T22:10:05.583Z,12.01
2023-03-26T22:15:17.449Z,12.05
2023-03-26T22:20:30.134Z,11.90
2023-03-26T22:25:36.322Z,11.85
2023-03-26T22:30:42.125Z,11.73
2023-03-26T22:35:47.564Z,11.83
2023-03-26T22:40:58.334Z,11.74
2023-03-26T22:46:04.239Z,11.57
2023-03-26T22:51:09.889Z,11.61
2023-03-26T22:56:16.047Z,11.24
2023-03-26T23:01:24.348Z,11.09
2023-03-26T23:06:29.656Z,10.93
2023-03-26T23:11:35.398Z,10.65
2023-03-26T23:16:41.140Z,10.65
2023-03-26T23:21:46.500Z,10.49
2023-03-26T23:26:51.842Z,10.73
2023-03-26T23:31:57.484Z,10.65
2023-03-26T23:37:03.486Z,10.62
2023-03-26T23:42:08.769Z,10.83
2023-03-26T23:47:17.247Z,11.01
2023-03-26T23:52:23.118Z,10.89
2023-03-26T23:57:28.317Z,10.94
